createdAt,value
2022-08-07T00:00:45.126Z,964.09
2022-08-07T00:02:36.756Z,964.07
2022-08-07T00:02:46.141Z,964.08
2022-08-07T00:03:47.437Z,964.05
2022-08-07T00:04:45.360Z,964.04
2022-08-07T00:05:45.075Z,964.05
2022-08-07T00:06:51.797Z,964.05
2022-08-07T00:07:45.055Z,964.05
2022-08-07T00:08:46.067Z,964.10
2022-08-07T00:10:04.718Z,964.11
2022-08-07T00:10:57.479Z,964.10
2022-08-07T00:11:53.920Z,964.10
2022-08-07T00:12:59.882Z,964.06
2022-08-07T00:13:45.081Z,964.11
2022-08-07T00:14:44.980Z,964.10
2022-08-07T00:15:46.733Z,964.03
2022-08-07T00:16:44.981Z,964.02
2022-08-07T00:17:44.962Z,963.98
2022-08-07T00:18:44.945Z,963.96
2022-08-07T00:20:01.578Z,963.96
2022-08-07T00:20:45.944Z,963.92
2022-08-07T00:21:56.887Z,963.89
2022-08-07T00:22:51.735Z,963.85
2022-08-07T00:23:44.894Z,963.85
2022-08-07T00:24:44.883Z,963.83
2022-08-07T00:25:59.236Z,963.82
2022-08-07T00:26:58.461Z,963.80
2022-08-07T00:27:52.284Z,963.82
2022-08-07T00:28:46.158Z,963.82
2022-08-07T00:29:44.823Z,963.83
2022-08-07T00:30:44.815Z,963.81
2022-08-07T00:31:44.933Z,963.77
2022-08-07T00:32:44.795Z,963.81
2022-08-07T00:33:47.557Z,963.75
2022-08-07T00:34:44.779Z,963.72
2022-08-07T00:35:49.689Z,963.69
2022-08-07T00:36:44.748Z,963.65
2022-08-07T00:37:48.418Z,963.67
2022-08-07T00:38:44.734Z,963.64
2022-08-07T00:39:44.932Z,963.61
2022-08-07T00:40:47.728Z,963.64
2022-08-07T00:41:45.326Z,963.67
2022-08-07T00:42:45.689Z,963.64
2022-08-07T00:44:00.977Z,963.69
2022-08-07T00:44:45.668Z,963.68
2022-08-07T00:45:46.440Z,963.69
2022-08-07T00:46:44.672Z,963.65
2022-08-07T00:48:09.838Z,963.66
2022-08-07T00:48:45.631Z,963.62
2022-08-07T00:50:21.414Z,963.66
2022-08-07T00:50:50.900Z,963.60
2022-08-07T00:51:58.292Z,963.57
2022-08-07T00:52:47.448Z,963.58
2022-08-07T00:53:50.032Z,963.55
2022-08-07T00:54:44.573Z,963.52
2022-08-07T00:56:02.170Z,963.54
2022-08-07T00:56:44.552Z,963.55
2022-08-07T00:57:56.066Z,963.50
2022-08-07T00:58:47.066Z,963.49
2022-08-07T00:59:44.515Z,963.49
2022-08-07T01:00:53.684Z,963.46
2022-08-07T01:01:44.935Z,963.48
2022-08-07T01:02:44.535Z,963.49
2022-08-07T01:03:55.449Z,963.48
2022-08-07T01:04:45.465Z,963.48
2022-08-07T01:05:51.615Z,963.49
2022-08-07T01:06:44.448Z,963.45
2022-08-07T01:07:44.443Z,963.47
2022-08-07T01:08:53.305Z,963.43
2022-08-07T01:10:06.280Z,963.41
2022-08-07T01:10:56.339Z,963.38
2022-08-07T01:12:23.929Z,963.38
2022-08-07T01:12:54.161Z,963.36
2022-08-07T01:13:55.589Z,963.38
2022-08-07T01:14:44.985Z,963.38
2022-08-07T01:16:01.251Z,963.38
2022-08-07T01:16:47.311Z,963.41
2022-08-07T01:17:44.327Z,963.40
2022-08-07T01:18:44.322Z,963.39
2022-08-07T01:19:52.435Z,963.39
2022-08-07T01:20:44.310Z,963.36
2022-08-07T01:21:44.284Z,963.30
2022-08-07T01:22:46.857Z,963.29
2022-08-07T01:23:46.650Z,963.26
2022-08-07T01:24:44.248Z,963.24
2022-08-07T01:25:55.411Z,963.19
2022-08-07T01:26:44.253Z,963.18
2022-08-07T01:27:51.366Z,963.20
2022-08-07T01:28:46.266Z,963.16
2022-08-07T01:29:44.216Z,963.17
2022-08-07T01:30:44.211Z,963.21
2022-08-07T01:31:48.589Z,963.19
2022-08-07T01:32:44.224Z,963.17
2022-08-07T01:33:55.031Z,963.18
2022-08-07T01:34:44.155Z,963.19
2022-08-07T01:35:54.213Z,963.19
2022-08-07T01:36:45.124Z,963.18
2022-08-07T01:37:44.115Z,963.22
2022-08-07T01:38:44.114Z,963.20
2022-08-07T01:39:46.734Z,963.23
2022-08-07T01:40:47.077Z,963.25
2022-08-07T01:42:06.116Z,963.23
2022-08-07T01:42:57.230Z,963.23
2022-08-07T01:43:44.067Z,963.19
2022-08-07T01:44:44.044Z,963.18
2022-08-07T01:45:46.577Z,963.16
2022-08-07T01:46:44.037Z,963.13
2022-08-07T01:48:18.300Z,963.13
2022-08-07T01:48:46.624Z,963.10
2022-08-07T01:49:44.948Z,963.08
2022-08-07T01:50:43.979Z,963.02
2022-08-07T01:52:03.652Z,963.03
2022-08-07T01:52:49.654Z,963.03
2022-08-07T01:54:09.297Z,963.02
2022-08-07T01:54:44.939Z,963.04
2022-08-07T01:55:46.941Z,963.10
2022-08-07T01:56:46.260Z,963.03
2022-08-07T01:58:06.005Z,963.07
2022-08-07T01:58:45.360Z,963.04
2022-08-07T01:59:44.139Z,963.06
2022-08-07T02:00:49.036Z,963.04
2022-08-07T02:02:01.915Z,963.05
2022-08-07T02:03:18.523Z,963.05
2022-08-07T02:03:49.062Z,963.07
2022-08-07T02:04:52.371Z,963.08
2022-08-07T02:05:53.693Z,963.08
2022-08-07T02:06:44.823Z,963.16
2022-08-07T02:07:50.175Z,963.14
2022-08-07T02:08:43.794Z,963.17
2022-08-07T02:09:52.945Z,963.14
2022-08-07T02:10:48.713Z,963.14
2022-08-07T02:12:03.459Z,963.13
2022-08-07T02:12:46.412Z,963.14
2022-08-07T02:13:58.217Z,963.16
2022-08-07T02:14:43.735Z,963.11
2022-08-07T02:15:43.723Z,963.10
2022-08-07T02:16:43.709Z,963.11
2022-08-07T02:17:49.427Z,963.13
2022-08-07T02:18:46.811Z,963.14
2022-08-07T02:20:04.212Z,963.14
2022-08-07T02:20:48.640Z,963.13
2022-08-07T02:21:55.232Z,963.17
2022-08-07T02:22:43.976Z,963.15
2022-08-07T02:23:44.818Z,963.18
2022-08-07T02:24:44.558Z,963.20
2022-08-07T02:26:30.864Z,963.18
2022-08-07T02:26:44.621Z,963.16
2022-08-07T02:27:43.595Z,963.12
2022-08-07T02:28:43.599Z,963.16
2022-08-07T02:29:53.949Z,963.13
2022-08-07T02:30:46.607Z,963.12
2022-08-07T02:31:43.560Z,963.11
2022-08-07T02:33:00.387Z,963.16
2022-08-07T02:34:03.931Z,963.11
2022-08-07T02:34:44.532Z,963.08
2022-08-07T02:36:28.644Z,963.10
2022-08-07T02:36:50.102Z,963.10
2022-08-07T02:37:44.027Z,963.12
2022-08-07T02:38:50.698Z,963.11
2022-08-07T02:40:02.324Z,963.12
2022-08-07T02:40:48.299Z,963.14
2022-08-07T02:41:50.638Z,963.16
2022-08-07T02:42:43.443Z,963.15
2022-08-07T02:43:43.436Z,963.18
2022-08-07T02:44:45.847Z,963.14
2022-08-07T02:46:00.937Z,963.15
2022-08-07T02:46:46.842Z,963.12
2022-08-07T02:47:45.472Z,963.13
2022-08-07T02:48:54.693Z,963.09
2022-08-07T02:49:58.201Z,963.08
2022-08-07T02:50:43.365Z,963.04
2022-08-07T02:51:51.860Z,963.01
2022-08-07T02:52:44.128Z,962.99
2022-08-07T02:53:43.369Z,962.95
2022-08-07T02:54:43.327Z,962.94
2022-08-07T02:56:04.416Z,962.91
2022-08-07T02:56:44.310Z,962.89
2022-08-07T02:57:43.290Z,962.91
2022-08-07T02:58:47.452Z,962.88
2022-08-07T02:59:43.279Z,962.89
2022-08-07T03:00:46.758Z,962.85
2022-08-07T03:01:47.211Z,962.89
2022-08-07T03:02:54.242Z,962.89
2022-08-07T03:03:50.116Z,962.90
2022-08-07T03:04:43.221Z,962.84
2022-08-07T03:05:43.213Z,962.86
2022-08-07T03:06:44.583Z,962.85
2022-08-07T03:08:07.748Z,962.85
2022-08-07T03:08:44.173Z,962.84
2022-08-07T03:09:47.209Z,962.83
2022-08-07T03:10:47.143Z,962.84
2022-08-07T03:11:52.390Z,962.80
2022-08-07T03:12:43.129Z,962.80
2022-08-07T03:13:50.014Z,962.83
2022-08-07T03:14:43.115Z,962.83
2022-08-07T03:15:48.001Z,962.83
2022-08-07T03:16:44.085Z,962.84
2022-08-07T03:17:53.991Z,962.84
2022-08-07T03:18:44.123Z,962.80
2022-08-07T03:19:43.078Z,962.77
2022-08-07T03:20:43.051Z,962.75
2022-08-07T03:21:50.363Z,962.78
2022-08-07T03:22:43.025Z,962.74
2022-08-07T03:24:19.501Z,962.77
2022-08-07T03:24:44.070Z,962.74
2022-08-07T03:25:45.999Z,962.73
2022-08-07T03:26:57.930Z,962.78
2022-08-07T03:27:59.191Z,962.75
2022-08-07T03:28:44.429Z,962.75
2022-08-07T03:29:44.590Z,962.76
2022-08-07T03:30:42.950Z,962.75
2022-08-07T03:31:46.435Z,962.77
2022-08-07T03:32:49.021Z,962.78
2022-08-07T03:33:43.911Z,962.81
2022-08-07T03:34:47.155Z,962.82
2022-08-07T03:35:50.392Z,962.83
2022-08-07T03:36:42.879Z,962.85
2022-08-07T03:37:46.362Z,962.82
2022-08-07T03:38:42.866Z,962.82
2022-08-07T03:39:59.740Z,962.78
2022-08-07T03:40:46.906Z,962.82
2022-08-07T03:41:47.541Z,962.81
2022-08-07T03:42:42.822Z,962.84
2022-08-07T03:43:44.020Z,962.83
2022-08-07T03:44:42.763Z,962.81
2022-08-07T03:45:43.694Z,962.81
2022-08-07T03:47:11.274Z,962.81
2022-08-07T03:47:48.007Z,962.83
2022-08-07T03:48:45.316Z,962.80
2022-08-07T03:49:47.951Z,962.79
2022-08-07T03:50:43.063Z,962.82
2022-08-07T03:51:47.181Z,962.82
2022-08-07T03:52:42.656Z,962.84
2022-08-07T03:54:05.597Z,962.83
2022-08-07T03:54:55.230Z,962.87
2022-08-07T03:55:58.208Z,962.87
2022-08-07T03:57:03.967Z,962.83
2022-08-07T03:58:08.740Z,962.86
2022-08-07T03:59:08.664Z,962.86
2022-08-07T03:59:46.593Z,962.86
2022-08-07T04:00:46.538Z,962.86
2022-08-07T04:01:43.124Z,962.89
2022-08-07T04:02:42.559Z,962.85
2022-08-07T04:03:49.895Z,962.82
2022-08-07T04:04:42.535Z,962.87
2022-08-07T04:05:45.507Z,962.83
2022-08-07T04:06:42.517Z,962.84
2022-08-07T04:07:45.309Z,962.87
2022-08-07T04:08:42.491Z,962.83
2022-08-07T04:09:45.160Z,962.80
2022-08-07T04:10:54.501Z,962.85
2022-08-07T04:12:25.416Z,962.83
2022-08-07T04:12:43.465Z,962.89
2022-08-07T04:14:09.915Z,962.84
2022-08-07T04:14:46.259Z,962.87
2022-08-07T04:15:42.415Z,962.88
2022-08-07T04:16:43.044Z,962.91
2022-08-07T04:18:58.262Z,962.91
2022-08-07T04:18:59.316Z,962.88
2022-08-07T04:19:52.114Z,962.95
2022-08-07T04:20:54.386Z,962.90
2022-08-07T04:21:59.538Z,962.92
2022-08-07T04:22:53.698Z,962.95
2022-08-07T04:24:03.736Z,962.95
2022-08-07T04:24:43.336Z,962.97
2022-08-07T04:25:45.346Z,963.01
2022-08-07T04:26:43.664Z,963.00
2022-08-07T04:27:46.095Z,962.97
2022-08-07T04:28:43.286Z,963.01
2022-08-07T04:29:58.952Z,963.03
2022-08-07T04:30:43.927Z,963.01
2022-08-07T04:32:02.926Z,963.07
2022-08-07T04:32:44.634Z,963.00
2022-08-07T04:33:43.229Z,962.97
2022-08-07T04:34:43.250Z,963.02
2022-08-07T04:35:42.222Z,963.03
2022-08-07T04:36:42.208Z,963.01
2022-08-07T04:38:03.202Z,963.06
2022-08-07T04:38:43.178Z,963.05
2022-08-07T04:39:47.993Z,963.11
2022-08-07T04:40:52.945Z,963.09
2022-08-07T04:41:48.263Z,963.06
2022-08-07T04:42:42.153Z,963.12
2022-08-07T04:44:12.106Z,963.09
2022-08-07T04:44:54.561Z,963.08
2022-08-07T04:46:00.613Z,963.14
2022-08-07T04:47:04.349Z,963.10
2022-08-07T04:48:00.742Z,963.09
2022-08-07T04:48:44.594Z,963.11
2022-08-07T04:49:42.062Z,963.13
2022-08-07T04:50:43.072Z,963.09
2022-08-07T04:51:42.042Z,963.13
2022-08-07T04:52:46.801Z,963.13
2022-08-07T04:54:01.661Z,963.11
2022-08-07T04:54:43.015Z,963.13
2022-08-07T04:58:12.162Z,963.13
2022-08-07T04:58:13.820Z,963.12
2022-08-07T04:58:15.262Z,963.12
2022-08-07T05:00:11.956Z,963.11
2022-08-07T05:00:43.072Z,963.10
2022-08-07T05:01:41.980Z,963.10
2022-08-07T05:02:42.817Z,963.12
2022-08-07T05:04:07.160Z,963.14
2022-08-07T05:04:43.951Z,963.11
2022-08-07T05:05:52.651Z,963.11
2022-08-07T05:06:43.078Z,963.12
2022-08-07T05:07:48.374Z,963.15
2022-08-07T05:08:59.307Z,963.14
2022-08-07T05:09:45.823Z,963.15
2022-08-07T05:10:44.850Z,963.11
2022-08-07T05:11:56.993Z,963.13
2022-08-07T05:12:51.416Z,963.12
2022-08-07T05:14:52.590Z,963.15
2022-08-07T05:14:54.220Z,963.14
2022-08-07T05:15:42.800Z,963.13
2022-08-07T05:16:43.802Z,963.16
2022-08-07T05:17:51.929Z,963.16
2022-08-07T05:18:41.762Z,963.15
2022-08-07T05:19:45.242Z,963.19
2022-08-07T05:20:42.756Z,963.17
2022-08-07T05:21:59.962Z,963.18
2022-08-07T05:22:42.724Z,963.21
2022-08-07T05:23:41.714Z,963.20
2022-08-07T05:24:41.754Z,963.19
2022-08-07T05:26:11.897Z,963.21
2022-08-07T05:26:42.705Z,963.28
2022-08-07T05:28:16.140Z,963.29
2022-08-07T05:28:48.556Z,963.25
2022-08-07T05:29:50.959Z,963.28
2022-08-07T05:30:41.679Z,963.26
2022-08-07T05:31:41.629Z,963.29
2022-08-07T05:32:41.618Z,963.31
2022-08-07T05:33:41.606Z,963.29
2022-08-07T05:34:42.650Z,963.30
2022-08-07T05:35:42.368Z,963.30
2022-08-07T05:36:41.586Z,963.31
2022-08-07T05:37:42.337Z,963.30
2022-08-07T05:39:00.332Z,963.35
2022-08-07T05:40:13.513Z,963.37
2022-08-07T05:40:50.399Z,963.33
2022-08-07T05:42:01.446Z,963.34
2022-08-07T05:42:42.520Z,963.35
2022-08-07T05:43:49.632Z,963.36
2022-08-07T05:44:52.752Z,963.34
2022-08-07T05:45:47.690Z,963.37
2022-08-07T05:46:41.492Z,963.37
2022-08-07T05:48:02.176Z,963.36
2022-08-07T05:48:58.162Z,963.38
2022-08-07T05:49:42.443Z,963.35
2022-08-07T05:50:42.949Z,963.33
2022-08-07T05:51:42.373Z,963.36
2022-08-07T05:52:41.425Z,963.36
2022-08-07T05:54:13.457Z,963.37
2022-08-07T05:54:53.244Z,963.37
2022-08-07T05:56:01.822Z,963.43
2022-08-07T05:56:42.425Z,963.39
2022-08-07T05:57:41.936Z,963.43
2022-08-07T05:58:41.352Z,963.41
2022-08-07T05:59:55.843Z,963.44
2022-08-07T06:00:42.329Z,963.37
2022-08-07T06:01:41.366Z,963.39
2022-08-07T06:02:41.730Z,963.37
2022-08-07T06:03:53.590Z,963.35
2022-08-07T06:04:42.283Z,963.32
2022-08-07T06:05:41.276Z,963.36
2022-08-07T06:06:46.228Z,963.35
2022-08-07T06:08:14.171Z,963.34
2022-08-07T06:08:42.676Z,963.34
2022-08-07T06:10:04.421Z,963.34
2022-08-07T06:10:45.221Z,963.33
2022-08-07T06:11:41.236Z,963.31
2022-08-07T06:12:41.228Z,963.33
2022-08-07T06:14:11.645Z,963.30
2022-08-07T06:14:42.197Z,963.34
2022-08-07T06:15:42.357Z,963.33
2022-08-07T06:16:41.167Z,963.27
2022-08-07T06:17:41.365Z,963.29
2022-08-07T06:18:41.140Z,963.31
2022-08-07T06:19:52.318Z,963.30
2022-08-07T06:20:50.941Z,963.32
2022-08-07T06:22:14.426Z,963.32
2022-08-07T06:22:42.138Z,963.32
2022-08-07T06:24:37.300Z,963.31
2022-08-07T06:24:56.985Z,963.31
2022-08-07T06:25:54.323Z,963.33
2022-08-07T06:26:41.072Z,963.33
2022-08-07T06:27:59.890Z,963.34
2022-08-07T06:28:42.033Z,963.29
2022-08-07T06:29:41.033Z,963.35
2022-08-07T06:30:45.379Z,963.31
2022-08-07T06:31:49.754Z,963.35
2022-08-07T06:32:41.003Z,963.39
2022-08-07T06:33:41.006Z,963.32
2022-08-07T06:34:40.973Z,963.34
2022-08-07T06:35:48.025Z,963.28
2022-08-07T06:36:41.944Z,963.30
2022-08-07T06:37:44.150Z,963.28
2022-08-07T06:38:51.281Z,963.31
2022-08-07T06:40:18.023Z,963.29
2022-08-07T06:40:45.907Z,963.32
2022-08-07T06:42:01.094Z,963.30
2022-08-07T06:42:41.887Z,963.32
2022-08-07T06:43:46.372Z,963.31
2022-08-07T06:44:41.867Z,963.35
2022-08-07T06:45:40.866Z,963.34
2022-08-07T06:46:40.849Z,963.34
2022-08-07T06:47:48.064Z,963.35
2022-08-07T06:48:44.689Z,963.35
2022-08-07T06:49:51.721Z,963.39
2022-08-07T06:50:43.110Z,963.35
2022-08-07T06:51:49.713Z,963.35
2022-08-07T06:52:40.823Z,963.39
2022-08-07T06:55:27.295Z,963.34
2022-08-07T06:55:33.951Z,963.38
2022-08-07T06:55:48.011Z,963.33
2022-08-07T06:56:49.367Z,963.35
2022-08-07T06:57:48.368Z,963.33
2022-08-07T07:00:12.995Z,963.33
2022-08-07T07:00:13.123Z,963.36
2022-08-07T07:00:42.456Z,963.33
2022-08-07T07:01:43.902Z,963.35
2022-08-07T07:02:48.351Z,963.36
2022-08-07T07:03:49.374Z,963.28
2022-08-07T07:04:43.542Z,963.32
2022-08-07T07:06:02.532Z,963.28
2022-08-07T07:07:00.158Z,963.31
2022-08-07T07:07:59.623Z,963.30
2022-08-07T07:08:46.424Z,963.27
2022-08-07T07:09:40.615Z,963.30
2022-08-07T07:10:54.640Z,963.28
2022-08-07T07:12:08.622Z,963.29
2022-08-07T07:12:41.849Z,963.28
2022-08-07T07:13:57.808Z,963.35
2022-08-07T07:14:41.558Z,963.34
2022-08-07T07:15:40.597Z,963.37
2022-08-07T07:16:49.595Z,963.29
2022-08-07T07:17:45.461Z,963.34
2022-08-07T07:18:48.100Z,963.33
2022-08-07T07:19:57.522Z,963.32
2022-08-07T07:20:41.496Z,963.29
2022-08-07T07:22:04.999Z,963.28
2022-08-07T07:24:08.229Z,963.26
2022-08-07T07:24:09.176Z,963.31
2022-08-07T07:24:43.211Z,963.30
2022-08-07T07:26:32.211Z,963.26
2022-08-07T07:26:41.456Z,963.26
2022-08-07T07:27:56.340Z,963.33
2022-08-07T07:28:48.356Z,963.21
2022-08-07T07:30:07.540Z,963.23
2022-08-07T07:30:41.494Z,963.30
2022-08-07T07:31:44.619Z,963.28
2022-08-07T07:32:40.421Z,963.21
2022-08-07T07:33:40.366Z,963.27
2022-08-07T07:34:41.354Z,963.28
2022-08-07T07:35:54.368Z,963.30
2022-08-07T07:36:41.326Z,963.26
2022-08-07T07:37:47.377Z,963.24
2022-08-07T07:38:41.318Z,963.26
2022-08-07T07:39:52.519Z,963.23
2022-08-07T07:40:43.304Z,963.25
2022-08-07T07:41:50.736Z,963.29
2022-08-07T07:42:41.268Z,963.22
2022-08-07T07:44:14.177Z,963.28
2022-08-07T07:44:41.249Z,963.28
2022-08-07T07:46:50.475Z,963.28
2022-08-07T07:46:56.017Z,963.30
2022-08-07T07:47:42.717Z,963.29
2022-08-07T07:48:40.213Z,963.27
2022-08-07T07:50:36.105Z,963.24
2022-08-07T07:50:41.227Z,963.26
2022-08-07T07:51:57.441Z,963.25
2022-08-07T07:52:41.170Z,963.29
2022-08-07T07:53:52.035Z,963.33
2022-08-07T07:54:40.150Z,963.35
2022-08-07T07:55:45.643Z,963.37
2022-08-07T07:56:40.181Z,963.35
2022-08-07T07:57:50.424Z,963.36
2022-08-07T07:58:40.828Z,963.33
2022-08-07T07:59:52.293Z,963.33
2022-08-07T08:00:40.131Z,963.30
2022-08-07T08:02:02.576Z,963.30
2022-08-07T08:03:05.704Z,963.35
2022-08-07T08:04:06.020Z,963.35
2022-08-07T08:04:41.068Z,963.29
2022-08-07T08:05:50.760Z,963.36
2022-08-07T08:06:51.997Z,963.32
2022-08-07T08:07:42.461Z,963.31
2022-08-07T08:08:41.949Z,963.33
2022-08-07T08:09:52.141Z,963.37
2022-08-07T08:10:42.985Z,963.43
2022-08-07T08:11:47.289Z,963.37
2022-08-07T08:12:52.696Z,963.37
2022-08-07T08:13:53.951Z,963.37
2022-08-07T08:14:39.948Z,963.39
2022-08-07T08:15:58.019Z,963.38
2022-08-07T08:16:40.928Z,963.40
2022-08-07T08:17:57.894Z,963.46
2022-08-07T08:18:40.911Z,963.45
2022-08-07T08:20:17.400Z,963.39
2022-08-07T08:20:40.891Z,963.36
2022-08-07T08:22:00.545Z,963.38
2022-08-07T08:22:54.266Z,963.37
2022-08-07T08:23:40.852Z,963.32
2022-08-07T08:24:45.305Z,963.35
2022-08-07T08:25:49.273Z,963.35
2022-08-07T08:26:39.831Z,963.35
2022-08-07T08:27:39.809Z,963.32
2022-08-07T08:28:45.126Z,963.39
2022-08-07T08:29:54.130Z,963.39
2022-08-07T08:30:42.896Z,963.43
2022-08-07T08:31:58.750Z,963.39
2022-08-07T08:32:41.348Z,963.41
2022-08-07T08:33:39.764Z,963.42
2022-08-07T08:35:47.068Z,963.40
2022-08-07T08:36:39.723Z,963.51
2022-08-07T08:38:01.604Z,963.47
2022-08-07T08:38:41.341Z,963.38
2022-08-07T08:39:54.626Z,963.43
2022-08-07T08:40:43.906Z,963.45
2022-08-07T08:41:57.469Z,963.47
2022-08-07T08:42:40.655Z,963.51
2022-08-07T08:43:42.157Z,963.47
2022-08-07T08:44:45.707Z,963.53
2022-08-07T08:45:41.897Z,963.49
2022-08-07T08:46:40.617Z,963.51
2022-08-07T08:47:52.890Z,963.55
2022-08-07T08:48:39.598Z,963.50
2022-08-07T08:49:57.179Z,963.54
2022-08-07T08:50:40.573Z,963.53
2022-08-07T08:51:49.633Z,963.56
2022-08-07T08:52:40.818Z,963.60
2022-08-07T08:53:39.538Z,963.57
2022-08-07T08:54:39.531Z,963.59
2022-08-07T08:55:55.379Z,963.58
2022-08-07T08:56:39.521Z,963.59
2022-08-07T08:57:39.505Z,963.63
2022-08-07T08:58:39.483Z,963.58
2022-08-07T08:59:41.967Z,963.58
2022-08-07T09:00:42.682Z,963.63
2022-08-07T09:01:40.166Z,963.63
2022-08-07T09:02:39.541Z,963.60
2022-08-07T09:03:49.379Z,963.64
2022-08-07T09:04:39.426Z,963.61
2022-08-07T09:05:39.424Z,963.61
2022-08-07T09:06:40.370Z,963.64
2022-08-07T09:07:46.297Z,963.63
2022-08-07T09:08:40.378Z,963.66
2022-08-07T09:09:39.375Z,963.63
2022-08-07T09:10:44.242Z,963.67
2022-08-07T09:11:51.238Z,963.66
2022-08-07T09:12:39.378Z,963.63
2022-08-07T09:13:40.327Z,963.67
2022-08-07T09:14:39.321Z,963.67
2022-08-07T09:16:22.439Z,963.68
2022-08-07T09:16:40.307Z,963.70
2022-08-07T09:18:00.365Z,963.67
2022-08-07T09:18:40.299Z,963.70
2022-08-07T09:19:52.015Z,963.68
2022-08-07T09:20:39.259Z,963.65
2022-08-07T09:22:09.849Z,963.70
2022-08-07T09:24:30.449Z,963.71
2022-08-07T09:24:33.734Z,963.68
2022-08-07T09:24:59.367Z,963.72
2022-08-07T09:25:43.200Z,963.72
2022-08-07T09:26:39.212Z,963.70
2022-08-07T09:27:59.590Z,963.74
2022-08-07T09:30:04.150Z,963.69
2022-08-07T09:30:06.238Z,963.70
2022-08-07T09:30:40.351Z,963.71
2022-08-07T09:31:39.133Z,963.75
2022-08-07T09:32:39.134Z,963.69
2022-08-07T09:33:53.075Z,963.71
2022-08-07T09:34:40.114Z,963.75
2022-08-07T09:36:03.326Z,963.74
2022-08-07T09:36:42.950Z,963.81
2022-08-07T09:37:48.162Z,963.81
2022-08-07T09:38:39.078Z,963.84
2022-08-07T09:39:53.669Z,963.84
2022-08-07T09:40:43.048Z,963.80
2022-08-07T09:41:43.143Z,963.81
2022-08-07T09:42:40.027Z,963.80
2022-08-07T09:44:03.392Z,963.78
2022-08-07T09:45:40.039Z,963.78
2022-08-07T09:47:37.226Z,963.78
2022-08-07T09:47:52.426Z,963.81
2022-08-07T09:47:59.425Z,963.83
2022-08-07T09:48:50.178Z,963.77
2022-08-07T09:50:02.104Z,963.78
2022-08-07T09:50:40.100Z,963.80
2022-08-07T09:52:10.079Z,963.77
2022-08-07T09:52:39.942Z,963.71
2022-08-07T09:53:41.145Z,963.68
2022-08-07T09:54:39.901Z,963.68
2022-08-07T09:56:04.587Z,963.66
2022-08-07T09:56:41.783Z,963.70
2022-08-07T09:57:46.908Z,963.67
2022-08-07T09:58:42.282Z,963.70
2022-08-07T09:59:46.314Z,963.67
2022-08-07T10:00:39.857Z,963.67
2022-08-07T10:01:51.440Z,963.69
2022-08-07T10:02:38.826Z,963.66
2022-08-07T10:04:05.964Z,963.66
2022-08-07T10:04:46.198Z,963.66
2022-08-07T10:06:02.767Z,963.69
2022-08-07T10:06:39.789Z,963.66
2022-08-07T10:07:52.424Z,963.68
2022-08-07T10:08:38.758Z,963.63
2022-08-07T10:09:59.113Z,963.66
2022-08-07T10:11:16.439Z,963.68
2022-08-07T10:12:02.664Z,963.68
2022-08-07T10:12:39.967Z,963.68
2022-08-07T10:14:00.824Z,963.68
2022-08-07T10:14:39.697Z,963.66
2022-08-07T10:15:44.372Z,963.71
2022-08-07T10:16:38.680Z,963.69
2022-08-07T10:18:00.679Z,963.68
2022-08-07T10:18:39.658Z,963.70
2022-08-07T10:19:38.793Z,963.66
2022-08-07T10:20:38.638Z,963.67
2022-08-07T10:22:12.632Z,963.66
2022-08-07T10:22:39.616Z,963.67
2022-08-07T10:24:04.907Z,963.63
2022-08-07T10:24:39.930Z,963.64
2022-08-07T10:25:42.860Z,963.63
2022-08-07T10:26:38.583Z,963.62
2022-08-07T10:27:46.174Z,963.62
2022-08-07T10:28:38.554Z,963.64
2022-08-07T10:29:43.340Z,963.62
2022-08-07T10:30:38.526Z,963.61
2022-08-07T10:31:39.284Z,963.64
2022-08-07T10:32:52.803Z,963.64
2022-08-07T10:34:07.028Z,963.66
2022-08-07T10:34:39.505Z,963.68
2022-08-07T10:35:55.229Z,963.65
2022-08-07T10:36:39.476Z,963.69
2022-08-07T10:38:00.213Z,963.68
2022-08-07T10:38:48.301Z,963.70
2022-08-07T10:39:42.176Z,963.66
2022-08-07T10:40:42.428Z,963.65
2022-08-07T10:41:47.193Z,963.69
2022-08-07T10:42:39.414Z,963.68
2022-08-07T10:43:38.389Z,963.71
2022-08-07T10:44:39.164Z,963.68
2022-08-07T10:45:44.660Z,963.70
2022-08-07T10:46:39.364Z,963.69
2022-08-07T10:47:53.519Z,963.67
2022-08-07T10:48:39.352Z,963.67
2022-08-07T10:49:49.646Z,963.68
2022-08-07T10:50:38.329Z,963.63
2022-08-07T10:51:39.518Z,963.66
2022-08-07T10:52:40.090Z,963.72
2022-08-07T10:53:44.543Z,963.66
2022-08-07T10:54:38.275Z,963.67
2022-08-07T10:55:42.265Z,963.66
2022-08-07T10:56:38.272Z,963.71
2022-08-07T10:57:38.431Z,963.67
2022-08-07T10:58:40.624Z,963.66
2022-08-07T10:59:38.225Z,963.70
2022-08-07T11:00:39.484Z,963.72
2022-08-07T11:01:51.605Z,963.71
2022-08-07T11:02:38.256Z,963.72
2022-08-07T11:03:55.095Z,963.70
2022-08-07T11:04:39.238Z,963.70
2022-08-07T11:05:50.573Z,963.70
2022-08-07T11:06:38.159Z,963.66
2022-08-07T11:07:58.526Z,963.67
2022-08-07T11:08:39.196Z,963.70
2022-08-07T11:10:09.433Z,963.68
2022-08-07T11:10:42.145Z,963.69
2022-08-07T11:11:39.161Z,963.65
2022-08-07T11:12:38.100Z,963.73
2022-08-07T11:14:43.555Z,963.68
2022-08-07T11:14:44.215Z,963.67
2022-08-07T11:15:39.065Z,963.71
2022-08-07T11:16:39.065Z,963.66
2022-08-07T11:17:43.512Z,963.70
2022-08-07T11:18:38.035Z,963.64
2022-08-07T11:19:38.014Z,963.63
2022-08-07T11:20:38.002Z,963.59
2022-08-07T11:21:40.741Z,963.62
2022-08-07T11:22:45.645Z,963.62
2022-08-07T11:23:38.649Z,963.58
2022-08-07T11:24:37.966Z,963.62
2022-08-07T11:25:42.152Z,963.58
2022-08-07T11:26:38.657Z,963.61
2022-08-07T11:28:01.292Z,963.58
2022-08-07T11:28:38.944Z,963.55
2022-08-07T11:29:41.102Z,963.55
2022-08-07T11:30:41.764Z,963.51
2022-08-07T11:31:37.902Z,963.54
2022-08-07T11:32:40.507Z,963.55
2022-08-07T11:33:59.356Z,963.52
2022-08-07T11:34:40.919Z,963.52
2022-08-07T11:35:59.591Z,963.51
2022-08-07T11:36:38.840Z,963.52
2022-08-07T11:37:57.282Z,963.49
2022-08-07T11:38:38.846Z,963.51
2022-08-07T11:39:59.481Z,963.45
2022-08-07T11:40:41.820Z,963.45
2022-08-07T11:42:02.340Z,963.46
2022-08-07T11:42:38.790Z,963.46
2022-08-07T11:43:54.336Z,963.43
2022-08-07T11:44:38.762Z,963.35
2022-08-07T11:45:37.757Z,963.36
2022-08-07T11:46:38.744Z,963.35
2022-08-07T11:47:38.531Z,963.41
2022-08-07T11:48:38.743Z,963.36
2022-08-07T11:50:30.040Z,963.39
2022-08-07T11:50:44.304Z,963.37
2022-08-07T11:51:41.500Z,963.36
2022-08-07T11:52:37.947Z,963.36
2022-08-07T11:53:37.672Z,963.36
2022-08-07T11:54:38.657Z,963.34
2022-08-07T11:56:25.167Z,963.35
2022-08-07T11:56:38.645Z,963.34
2022-08-07T11:57:59.443Z,963.33
2022-08-07T11:58:38.660Z,963.31
2022-08-07T12:00:10.682Z,963.34
2022-08-07T12:00:38.588Z,963.31
2022-08-07T12:02:00.094Z,963.30
2022-08-07T12:02:38.735Z,963.29
2022-08-07T12:03:44.366Z,963.35
2022-08-07T12:04:37.547Z,963.34
2022-08-07T12:05:41.630Z,963.30
2022-08-07T12:06:40.294Z,963.29
2022-08-07T12:07:39.313Z,963.27
2022-08-07T12:08:38.511Z,963.19
2022-08-07T12:09:37.508Z,963.28
2022-08-07T12:10:41.899Z,963.22
2022-08-07T12:11:43.443Z,963.21
2022-08-07T12:12:38.461Z,963.22
2022-08-07T12:13:40.042Z,963.22
2022-08-07T12:14:37.443Z,963.19
2022-08-07T12:16:05.469Z,963.21
2022-08-07T12:16:38.443Z,963.19
2022-08-07T12:17:37.668Z,963.17
2022-08-07T12:18:38.407Z,963.15
2022-08-07T12:20:02.567Z,963.17
2022-08-07T12:20:38.389Z,963.17
2022-08-07T12:21:55.987Z,963.15
2022-08-07T12:22:47.361Z,963.11
2022-08-07T12:24:05.343Z,963.09
2022-08-07T12:24:40.217Z,963.07
2022-08-07T12:26:03.362Z,963.03
2022-08-07T12:26:41.985Z,963.06
2022-08-07T12:28:09.600Z,963.03
2022-08-07T12:28:38.319Z,963.02
2022-08-07T12:29:40.379Z,963.04
2022-08-07T12:30:37.270Z,963.01